LLHA

Details ICAO LLHA (HFA)
Name Haifa
Region Israel
Timezone Asia/Jerusalem (UTC+2.0)
Plans Departing 152
Arriving 75
Stats Elevation 28 ft / 9 m (AMSL)
Location 32.811100° 35.044100°
Runways 1
Magnetic Variation 4.941° E
Sunrise 2019-11-21 04:16:26 UTC / 2019-11-21 06:16:26 Local
Sunset 2019-11-21 14:37:37 UTC / 2019-11-21 16:37:37 Local
Advertisement - Login to hide

Runways

ID Width Length Bearing (true/mag) Surface Threshold Overrun Markings Lighting
16 98 ft / 30 m 4,161 ft / 1,268 m 158.88° / 153.94° ASPHALT 164 ft / 50 m 0 ft / 0 m APP EDGE THRESHOLD REIL-OMNI
34 98 ft / 30 m 4,161 ft / 1,268 m 338.88° / 333.94° ASPHALT 380 ft / 116 m 90 ft / 27 m APP EDGE THRESHOLD

Map

Weather


0- 5 10 15 20 25 30 35+ Temperature / °C

Clouds and Precipitation
Forecast for 2019-11-21 18:00 UTC. Updated 3 hours ago

Ground ~20,000 ft ~40,000 ft Winds

METAR

LLHA 211750Z VRB02KT CAVOK 16/02 Q1015

TAF

TAF LLHA 211703Z 2118/2218 13008KT CAVOK BECMG 2210/2212 24008KT TX24/2212Z TN13/2204Z

Frequencies

Tower 133.00 MHz
Ground 127.80 MHz
Warning: Do not use this data for real-world aviation or navigation. No guarantee of current accuracy is given.